Pagina principale
METAR-TAF:

METAR-TAF

Aeroporti :

Cefalonia, Grecia

Aeroporto di Cefalonia

latitudine: 38-07N, longitudine: 020-30E, altezza: 19 m

Osservazione

Il bollettino è stato emesso 53 minuti fa, alle 05:50 UTC
Vento calmo
Temperature 26°C
Umidità 74%
Pressione 1005 hPa
Visibilità 10 km o più
nessuna nube inferiore a 1500 m e nessun cumulonembo

METAR: LGKF 260550Z 00000KT CAVOK 26/21 Q1005

Ora: 09:43 (06:43 UTC)

Previsione

Il bollettino è stato emesso 1 ora e 43 minuti fa, alle 05:00 UTC
Previsione valida dal 26 alle 06 UTC al 26 alle 15 UTC
Vento 3 kt da direzioni variabili
Visibilità 10 km o più
Poco nuvoloso ad un'altezza di 1800 ft
Evoluzione graduale
dal 26 alle 08 UTC al 26 alle 10 UTC
Vento 10 kt da ovest

TAF: LGKF 260500Z 2606/2615 VRB03KT 9999 FEW018 BECMG 2608/2610 26010KT

Osservazioni e previsioni meteorologiche di più di 4000 aeroporti (messaggi METAR e TAF).

Le stazioni disponibili sono rappresentate dai dischi gialli e rossi sulla carta.

Puntare il mouse per vedere il nome della stazione.

Clicca sopra per visualizzare le osservazioni e previsioni meteorologiche.

Per cambiare la mappa : fare clic sui pulsanti verdi con una croce nera per ingrandire, il pulsante verde con un trattino per diminuire, o sulla freccia verde per le mappe adiacenti.


METAR-TAF: